Weather at Gainesville Municipal Airport

Public forecast

Using degrees Fahrenheit for public forecast. Weather courtesy of forecast.io.

Current aviation weather report (METAR) for Gainesville Municipal Airport

Retrieved 2020/12/02 09:35 UTC (0 seconds ago):

KGLE 020935Z AUTO RMK AO2 PWINO PNO

Closest aviation forecast (TAF) to Gainesville Municipal Airport

Closest forecast is Fort Worth Alliance Airport, 40.3 nm (74.7 km) S. Retrieved 2020/12/02 06:48 UTC (3 hours ago):

TAF KAFW 020545Z 0206/0306 13008KT P6SM FEW015 FEW250 WS015/18035KT FM021200 13008KT P6SM BKN015 FM021500 13009KT 4SM -RA BR OVC006 FM021700 20008KT P6SM BKN035 FM021900 23008KT P6SM SCT050